createdAt,value
2017-12-28T00:00:04.102Z,988.62
2017-12-28T00:05:03.379Z,988.81
2017-12-28T00:10:02.894Z,988.78
2017-12-28T00:15:03.442Z,988.95
2017-12-28T00:20:02.919Z,989.02
2017-12-28T00:25:03.416Z,989.19
2017-12-28T00:30:02.963Z,989.32
2017-12-28T00:35:03.503Z,989.26
2017-12-28T00:40:02.997Z,989.29
2017-12-28T00:45:03.432Z,989.29
2017-12-28T00:50:03.022Z,989.29
2017-12-28T00:55:03.527Z,989.36
2017-12-28T01:00:02.956Z,989.42
2017-12-28T01:05:02.919Z,989.52
2017-12-28T01:10:02.848Z,989.61
2017-12-28T01:15:03.366Z,989.72
2017-12-28T01:20:02.941Z,989.85
2017-12-28T01:25:03.451Z,989.89
2017-12-28T01:30:03.021Z,990
2017-12-28T01:35:03.633Z,990.15
2017-12-28T01:40:03.315Z,990.24
2017-12-28T01:45:02.757Z,990.27
2017-12-28T01:50:03.389Z,990.47
2017-12-28T01:55:02.939Z,990.52
2017-12-28T02:00:03.459Z,990.54
2017-12-28T02:05:02.868Z,990.64
2017-12-28T02:10:03.394Z,990.66
2017-12-28T02:15:02.936Z,990.81
2017-12-28T02:20:03.500Z,990.87
2017-12-28T02:25:02.974Z,990.93
2017-12-28T02:30:03.406Z,990.94
2017-12-28T02:35:02.844Z,990.99
2017-12-28T02:40:03.333Z,991.13
2017-12-28T02:45:02.765Z,991.16
2017-12-28T02:50:03.346Z,991.23
2017-12-28T02:55:02.868Z,991.31
2017-12-28T03:00:03.496Z,991.39
2017-12-28T03:05:02.897Z,991.48
2017-12-28T03:10:03.531Z,991.55
2017-12-28T03:15:03.113Z,991.56
2017-12-28T03:20:03.573Z,991.68
2017-12-28T03:25:02.962Z,991.8
2017-12-28T03:30:03.516Z,991.89
2017-12-28T03:35:02.994Z,991.94
2017-12-28T03:40:03.631Z,991.92
2017-12-28T03:45:03.174Z,992.03
2017-12-28T03:50:03.624Z,992.11
2017-12-28T03:55:03.096Z,992.1
2017-12-28T04:00:03.949Z,992.28
2017-12-28T04:05:03.436Z,992.32
2017-12-28T04:10:03.017Z,992.39
2017-12-28T04:15:03.483Z,992.44
2017-12-28T04:20:02.966Z,992.52
2017-12-28T04:25:03.410Z,992.64
2017-12-28T04:30:02.930Z,992.69
2017-12-28T04:35:03.452Z,992.75
2017-12-28T04:40:03.076Z,992.81
2017-12-28T04:45:03.639Z,992.74
2017-12-28T04:50:03.268Z,992.92
2017-12-28T04:55:02.852Z,993.04
2017-12-28T05:00:03.610Z,993.05
2017-12-28T05:05:03.115Z,993.18
2017-12-28T05:10:02.804Z,993.23
2017-12-28T05:15:03.335Z,993.29
2017-12-28T05:20:02.837Z,993.3
2017-12-28T05:25:03.383Z,993.39
2017-12-28T05:30:03.373Z,993.38
2017-12-28T05:35:02.868Z,993.5
2017-12-28T05:40:03.480Z,993.46
2017-12-28T05:45:03.228Z,993.6
2017-12-28T05:50:02.682Z,993.71
2017-12-28T05:55:03.162Z,993.76
2017-12-28T06:00:02.708Z,993.75
2017-12-28T06:05:03.238Z,993.79
2017-12-28T06:10:02.855Z,993.87
2017-12-28T06:15:03.398Z,994.01
2017-12-28T06:20:02.985Z,994.06
2017-12-28T06:25:03.573Z,994.18
2017-12-28T06:30:03.076Z,994.23
2017-12-28T06:35:03.608Z,994.35
2017-12-28T06:40:02.788Z,994.52
2017-12-28T06:45:03.306Z,994.48
2017-12-28T06:50:02.814Z,994.53
2017-12-28T06:55:03.292Z,994.63
2017-12-28T07:00:02.835Z,994.78
2017-12-28T07:05:03.411Z,994.8
2017-12-28T07:10:02.911Z,994.92
2017-12-28T07:15:03.428Z,994.99
2017-12-28T07:20:03.075Z,995.05
2017-12-28T07:25:03.514Z,995.16
2017-12-28T07:30:03.172Z,995.14
2017-12-28T07:35:02.760Z,995.17
2017-12-28T07:40:03.397Z,995.26
2017-12-28T07:45:03.003Z,995.23
2017-12-28T07:50:03.419Z,995.23
2017-12-28T07:55:03.029Z,995.31
2017-12-28T08:00:03.592Z,995.35
2017-12-28T08:05:03.030Z,995.43
2017-12-28T08:10:03.534Z,995.54
2017-12-28T08:15:02.956Z,995.54
2017-12-28T08:20:03.618Z,995.61
2017-12-28T08:25:03.462Z,995.65
2017-12-28T08:30:03.060Z,995.7
2017-12-28T08:35:03.526Z,995.8
2017-12-28T08:40:03.024Z,995.91
2017-12-28T08:45:03.523Z,995.93
2017-12-28T08:50:03.127Z,995.86
2017-12-28T08:55:02.740Z,995.9
2017-12-28T09:00:03.143Z,995.91
2017-12-28T09:05:03.615Z,995.94
2017-12-28T09:10:03.180Z,996.03
2017-12-28T09:15:02.797Z,996.08
2017-12-28T09:20:03.559Z,996.12
2017-12-28T09:25:03.233Z,996.32
2017-12-28T09:30:02.889Z,996.4
2017-12-28T09:35:03.414Z,996.42
2017-12-28T09:40:03.046Z,996.49
2017-12-28T09:45:03.493Z,996.58
2017-12-28T09:50:03.043Z,996.7
2017-12-28T09:55:03.651Z,996.64
2017-12-28T10:00:03.077Z,996.74
2017-12-28T10:05:02.782Z,996.74
2017-12-28T10:10:03.349Z,996.84
2017-12-28T10:15:02.793Z,996.78
2017-12-28T10:20:03.332Z,996.77
2017-12-28T10:25:02.905Z,996.74
2017-12-28T10:30:03.514Z,996.75
2017-12-28T10:35:03.105Z,996.8
2017-12-28T10:40:03.703Z,996.86
2017-12-28T10:45:03.285Z,996.87
2017-12-28T10:50:02.830Z,996.95
2017-12-28T10:55:03.420Z,996.99
2017-12-28T11:00:03.030Z,997.02
2017-12-28T11:05:03.494Z,997.03
2017-12-28T11:10:03.177Z,997.14
2017-12-28T11:15:03.627Z,997.11
2017-12-28T11:20:03.130Z,997.19
2017-12-28T11:25:02.647Z,997.3
2017-12-28T11:30:03.166Z,997.3
2017-12-28T11:35:03.657Z,997.42
2017-12-28T11:40:03.293Z,997.4
2017-12-28T11:45:03.022Z,997.5
2017-12-28T11:50:03.671Z,997.42
2017-12-28T11:55:03.214Z,997.44
2017-12-28T12:00:02.742Z,997.5
2017-12-28T12:05:03.408Z,997.47
2017-12-28T12:10:02.997Z,997.58
2017-12-28T12:15:03.450Z,997.64
2017-12-28T12:20:03.130Z,997.62
2017-12-28T12:25:03.556Z,997.52
2017-12-28T12:30:03.086Z,997.64
2017-12-28T12:35:03.544Z,997.56
2017-12-28T12:40:03.127Z,997.51
2017-12-28T12:45:03.589Z,997.63
2017-12-28T12:50:03.089Z,997.64
2017-12-28T12:55:03.562Z,997.73
2017-12-28T13:00:03.151Z,997.74
2017-12-28T13:05:02.743Z,997.72
2017-12-28T13:10:03.292Z,997.78
2017-12-28T13:15:02.924Z,997.87
2017-12-28T13:20:02.699Z,997.78
2017-12-28T13:25:03.319Z,997.89
2017-12-28T13:30:02.814Z,997.99
2017-12-28T13:35:03.412Z,997.97
2017-12-28T13:40:03.092Z,998.11
2017-12-28T13:45:03.648Z,998.17
2017-12-28T13:50:03.313Z,998.15
2017-12-28T13:55:02.991Z,998.2
2017-12-28T14:00:03.435Z,998.33
2017-12-28T14:05:02.998Z,998.42
2017-12-28T14:10:03.615Z,998.5
2017-12-28T14:15:03.199Z,998.49
2017-12-28T14:20:02.839Z,998.55
2017-12-28T14:25:03.301Z,998.53
2017-12-28T14:30:02.850Z,998.56
2017-12-28T14:35:03.504Z,998.8
2017-12-28T14:40:03.175Z,998.79
2017-12-28T14:45:02.852Z,998.81
2017-12-28T14:50:03.533Z,998.88
2017-12-28T14:55:02.987Z,999.07
2017-12-28T15:00:03.561Z,999.01
2017-12-28T15:05:03.457Z,999.17
2017-12-28T15:10:03.170Z,999.19
2017-12-28T15:15:02.744Z,999.19
2017-12-28T15:20:03.416Z,999.25
2017-12-28T15:25:02.890Z,999.32
2017-12-28T15:30:03.395Z,999.49
2017-12-28T15:35:02.937Z,999.51
2017-12-28T15:40:03.511Z,999.58
2017-12-28T15:45:03.035Z,999.61
2017-12-28T15:50:02.728Z,999.66
2017-12-28T15:55:03.239Z,999.78
2017-12-28T16:00:02.767Z,999.87
2017-12-28T16:05:03.400Z,999.88
2017-12-28T16:10:03.057Z,999.9
2017-12-28T16:20:03.416Z,1000.06
2017-12-28T16:25:03.028Z,1000.14
2017-12-28T16:30:03.488Z,1000.22
2017-12-28T16:35:03.218Z,1000.23
2017-12-28T16:40:02.912Z,1000.31
2017-12-28T16:45:03.495Z,1000.45
2017-12-28T16:50:03.144Z,1000.54
2017-12-28T16:55:02.785Z,1000.48
2017-12-28T17:00:03.438Z,1000.52
2017-12-28T17:05:02.966Z,1000.64
2017-12-28T17:10:03.591Z,1000.69
2017-12-28T17:15:03.056Z,1000.67
2017-12-28T17:20:03.593Z,1000.72
2017-12-28T17:25:03.033Z,1000.73
2017-12-28T17:30:02.701Z,1000.89
2017-12-28T17:35:03.317Z,1000.95
2017-12-28T17:40:02.824Z,1000.95
2017-12-28T17:45:03.348Z,1000.95
2017-12-28T17:50:02.973Z,1000.99
2017-12-28T17:55:03.443Z,1001
2017-12-28T18:00:02.883Z,1001.09
2017-12-28T18:05:03.345Z,1001.24
2017-12-28T18:10:02.907Z,1001.25
2017-12-28T18:15:03.312Z,1001.25
2017-12-28T18:20:02.917Z,1001.34
2017-12-28T18:25:03.503Z,1001.33
2017-12-28T18:30:02.974Z,1001.39
2017-12-28T18:35:03.537Z,1001.43
2017-12-28T18:40:03.106Z,1001.53
2017-12-28T18:45:02.754Z,1001.61
2017-12-28T18:50:03.207Z,1001.53
2017-12-28T19:00:03.250Z,1001.62
2017-12-28T19:05:02.723Z,1001.63
2017-12-28T19:10:03.295Z,1001.73
2017-12-28T19:15:02.916Z,1001.88
2017-12-28T19:20:03.588Z,1001.91
2017-12-28T19:25:03.196Z,1001.93
2017-12-28T19:30:02.690Z,1002.01
2017-12-28T19:35:03.187Z,1002.02
2017-12-28T19:40:03.160Z,1001.85
2017-12-28T19:45:02.848Z,1002.09
2017-12-28T19:50:03.558Z,1002.09
2017-12-28T19:55:03.023Z,1002.11
2017-12-28T20:00:03.609Z,1002.02
2017-12-28T20:05:03.077Z,1002.08
2017-12-28T20:10:02.811Z,1002.17
2017-12-28T20:15:03.517Z,1002.29
2017-12-28T20:20:03.052Z,1002.47
2017-12-28T20:25:02.752Z,1002.48
2017-12-28T20:30:03.141Z,1002.53
2017-12-28T20:35:02.922Z,1002.52
2017-12-28T20:40:03.652Z,1002.51
2017-12-28T20:45:03.233Z,1002.7
2017-12-28T20:50:02.749Z,1002.74
2017-12-28T20:55:03.281Z,1002.79
2017-12-28T21:00:02.805Z,1002.98
2017-12-28T21:05:03.358Z,1002.94
2017-12-28T21:10:02.911Z,1003.03
2017-12-28T21:15:03.514Z,1003.05
2017-12-28T21:20:03.121Z,1003.09
2017-12-28T21:25:02.733Z,1003.1
2017-12-28T21:30:03.223Z,1003.24
2017-12-28T21:35:02.921Z,1003.21
2017-12-28T21:40:03.564Z,1003.17
2017-12-28T21:45:03.194Z,1003.25
2017-12-28T21:50:02.799Z,1003.22
2017-12-28T21:55:03.471Z,1003.33
2017-12-28T22:00:02.991Z,1003.38
2017-12-28T22:05:03.547Z,1003.41
2017-12-28T22:10:03.226Z,1003.53
2017-12-28T22:15:02.766Z,1003.64
2017-12-28T22:20:03.495Z,1003.75
2017-12-28T22:25:02.965Z,1003.68
2017-12-28T22:30:03.497Z,1003.69
2017-12-28T22:35:02.970Z,1003.8
2017-12-28T22:40:03.658Z,1003.76
2017-12-28T22:45:03.135Z,1003.97
2017-12-28T22:50:03.582Z,1003.87
2017-12-28T22:55:03.162Z,1004.13
2017-12-28T23:00:02.675Z,1004.05
2017-12-28T23:05:03.445Z,1004.06
2017-12-28T23:10:03.203Z,1004.06
2017-12-28T23:15:03.729Z,1004.25
2017-12-28T23:20:03.267Z,1004.25
2017-12-28T23:25:02.738Z,1004.27
2017-12-28T23:30:03.229Z,1004.27
2017-12-28T23:35:02.870Z,1004.26
2017-12-28T23:40:03.329Z,1004.45
2017-12-28T23:45:02.992Z,1004.44
2017-12-28T23:50:03.482Z,1004.49
2017-12-28T23:55:03.035Z,1004.3
